createdAt,value
2022-11-05T00:00:37.941Z,85.22
2022-11-05T00:03:24.295Z,85.63
2022-11-05T00:06:12.742Z,85.66
2022-11-05T00:08:59.972Z,85.67
2022-11-05T00:11:45.810Z,85.60
2022-11-05T00:14:32.907Z,85.00
2022-11-05T00:17:00.275Z,84.16
2022-11-05T00:19:27.927Z,84.02
2022-11-05T00:22:13.872Z,83.61
2022-11-05T00:25:00.006Z,82.35
2022-11-05T00:27:27.305Z,83.18
2022-11-05T00:29:54.982Z,84.05
2022-11-05T00:32:23.197Z,85.92
2022-11-05T00:34:50.525Z,86.40
2022-11-05T00:37:18.232Z,87.18
2022-11-05T00:39:45.530Z,87.55
2022-11-05T00:42:31.364Z,87.24
2022-11-05T00:45:02.147Z,87.23
2022-11-05T00:47:50.528Z,87.41
2022-11-05T00:50:20.558Z,87.47
2022-11-05T00:53:01.363Z,87.69
2022-11-05T00:55:41.262Z,87.70
2022-11-05T00:58:17.028Z,87.26
2022-11-05T01:00:50.277Z,87.66
2022-11-05T01:03:19.789Z,88.10
2022-11-05T01:05:59.431Z,87.95
2022-11-05T01:08:27.736Z,89.03
2022-11-05T01:10:58.117Z,88.23
2022-11-05T01:13:29.273Z,88.34
2022-11-05T01:15:57.926Z,88.61
2022-11-05T01:18:25.481Z,88.33
2022-11-05T01:20:53.292Z,88.56
2022-11-05T01:23:21.408Z,88.23
2022-11-05T01:25:49.020Z,88.33
2022-11-05T01:28:16.380Z,88.28
2022-11-05T01:30:44.091Z,88.39
2022-11-05T01:33:11.731Z,87.94
2022-11-05T01:35:39.639Z,87.98
2022-11-05T01:38:08.549Z,88.55
2022-11-05T01:40:35.842Z,88.67
2022-11-05T01:43:03.242Z,89.01
2022-11-05T01:45:30.971Z,89.60
2022-11-05T01:48:03.410Z,90.36
2022-11-05T01:50:37.220Z,90.65
2022-11-05T01:53:27.174Z,90.68
2022-11-05T01:56:09.236Z,90.47
2022-11-05T01:58:58.726Z,90.68
2022-11-05T02:01:26.824Z,90.63
2022-11-05T02:04:03.238Z,90.82
2022-11-05T02:06:35.115Z,90.58
2022-11-05T02:09:08.054Z,89.75
2022-11-05T02:11:35.814Z,89.97
2022-11-05T02:14:03.596Z,90.29
2022-11-05T02:16:49.420Z,88.90
2022-11-05T02:19:30.547Z,89.32
2022-11-05T02:22:39.442Z,89.54
2022-11-05T02:25:32.808Z,88.64
2022-11-05T02:28:38.953Z,88.68
2022-11-05T02:31:25.417Z,90.47
2022-11-05T02:33:57.166Z,89.65
2022-11-05T02:36:37.904Z,91.09
2022-11-05T02:39:37.535Z,90.99
2022-11-05T02:42:30.674Z,91.03
2022-11-05T02:45:05.558Z,89.93
2022-11-05T02:47:47.277Z,89.28
2022-11-05T02:50:25.463Z,89.38
2022-11-05T02:53:02.138Z,89.08
2022-11-05T02:56:04.442Z,88.35
2022-11-05T02:58:35.470Z,89.29
2022-11-05T03:01:07.042Z,89.47
2022-11-05T03:03:44.742Z,89.42
2022-11-05T03:06:48.588Z,88.30
2022-11-05T03:09:25.398Z,87.39
2022-11-05T03:12:19.302Z,87.02
2022-11-05T03:15:08.139Z,86.08
2022-11-05T03:18:01.954Z,86.07
2022-11-05T03:20:40.523Z,85.45
2022-11-05T03:23:24.976Z,84.96
2022-11-05T03:25:59.422Z,84.83
2022-11-05T03:28:31.543Z,84.49
2022-11-05T03:31:00.043Z,83.86
2022-11-05T03:33:31.613Z,83.69
2022-11-05T03:36:04.198Z,84.35
2022-11-05T03:38:38.831Z,84.02
2022-11-05T03:41:10.256Z,85.01
2022-11-05T03:43:45.078Z,83.93
2022-11-05T03:46:19.506Z,84.17
2022-11-05T03:48:53.044Z,83.84
2022-11-05T03:51:29.538Z,83.72
2022-11-05T03:53:59.746Z,84.01
2022-11-05T03:56:35.619Z,83.39
2022-11-05T03:59:03.699Z,82.71
2022-11-05T04:01:31.879Z,82.24
2022-11-05T04:03:59.687Z,80.93
2022-11-05T04:06:45.597Z,81.46
2022-11-05T04:09:31.791Z,81.47
2022-11-05T04:12:17.682Z,81.74
2022-11-05T04:14:45.455Z,82.78
2022-11-05T04:17:12.946Z,82.15
2022-11-05T04:20:03.513Z,81.75
2022-11-05T04:22:53.348Z,82.19
2022-11-05T04:25:22.642Z,82.83
2022-11-05T04:27:50.409Z,83.11
2022-11-05T04:30:18.620Z,84.88
2022-11-05T04:33:11.454Z,86.15
2022-11-05T04:35:43.586Z,85.15
2022-11-05T04:38:14.934Z,85.00
2022-11-05T04:40:43.288Z,84.38
2022-11-05T04:43:15.288Z,84.19
2022-11-05T04:45:43.891Z,83.48
2022-11-05T04:48:11.716Z,83.09
2022-11-05T04:50:39.502Z,82.88
2022-11-05T04:53:07.214Z,82.97
2022-11-05T04:55:34.646Z,83.04
2022-11-05T04:58:01.979Z,82.07
2022-11-05T05:00:29.678Z,81.48
2022-11-05T05:02:57.145Z,81.43
2022-11-05T05:05:24.581Z,81.08
2022-11-05T05:09:15.114Z,82.80
2022-11-05T05:11:42.917Z,82.80
2022-11-05T05:14:10.215Z,83.28
2022-11-05T05:16:37.664Z,82.29
2022-11-05T05:19:05.372Z,82.00
2022-11-05T05:21:42.538Z,82.31
2022-11-05T05:24:16.069Z,81.86
2022-11-05T05:26:48.950Z,81.91
2022-11-05T05:29:18.042Z,81.33
2022-11-05T05:31:45.863Z,81.38
2022-11-05T05:34:14.859Z,81.00
2022-11-05T05:36:42.637Z,82.18
2022-11-05T05:39:11.283Z,82.30
2022-11-05T05:41:39.663Z,84.14
2022-11-05T05:44:07.712Z,83.83
2022-11-05T05:46:35.093Z,83.36
2022-11-05T05:49:06.707Z,82.23
2022-11-05T05:51:38.896Z,81.63
2022-11-05T05:54:06.263Z,79.72
2022-11-05T05:56:33.647Z,80.04
2022-11-05T05:59:01.586Z,82.64
2022-11-05T06:01:29.038Z,83.37
2022-11-05T06:03:57.947Z,83.03
2022-11-05T06:06:25.311Z,82.49
2022-11-05T06:08:52.775Z,82.35
2022-11-05T06:11:20.507Z,82.31
2022-11-05T06:13:47.911Z,81.25
2022-11-05T06:16:15.303Z,81.48
2022-11-05T06:18:42.965Z,81.54
2022-11-05T06:21:13.907Z,81.15
2022-11-05T06:23:43.056Z,81.49
2022-11-05T06:26:14.384Z,79.87
2022-11-05T06:28:42.329Z,80.46
2022-11-05T06:31:11.239Z,80.93
2022-11-05T06:33:40.077Z,80.76
2022-11-05T06:36:08.719Z,81.40
2022-11-05T06:38:36.962Z,83.02
2022-11-05T06:41:10.109Z,84.20
2022-11-05T06:43:38.162Z,81.55
2022-11-05T06:46:06.681Z,80.02
2022-11-05T06:48:34.155Z,81.95
2022-11-05T06:51:01.604Z,83.36
2022-11-05T06:53:29.493Z,84.20
2022-11-05T06:55:56.867Z,83.77
2022-11-05T06:58:24.237Z,84.26
2022-11-05T07:00:52.029Z,83.50
2022-11-05T07:03:19.465Z,82.55
2022-11-05T07:09:14.498Z,83.69
2022-11-05T07:11:42.413Z,83.69
2022-11-05T07:14:09.788Z,84.40
2022-11-05T07:16:37.114Z,85.01
2022-11-05T07:19:05.005Z,85.77
2022-11-05T07:21:32.343Z,85.75
2022-11-05T07:23:59.722Z,86.68
2022-11-05T07:26:31.886Z,87.59
2022-11-05T07:29:01.828Z,86.76
2022-11-05T07:31:29.673Z,85.37
2022-11-05T07:33:57.113Z,85.74
2022-11-05T07:36:24.536Z,86.61
2022-11-05T07:38:56.075Z,86.57
2022-11-05T07:41:26.409Z,85.95
2022-11-05T07:43:54.297Z,85.44
2022-11-05T07:46:21.677Z,84.13
2022-11-05T07:48:49.010Z,83.57
2022-11-05T07:51:16.683Z,82.98
2022-11-05T07:53:45.526Z,82.91
2022-11-05T07:56:15.412Z,82.53
2022-11-05T07:58:43.274Z,80.89
2022-11-05T08:01:10.793Z,80.27
2022-11-05T08:03:38.763Z,80.26
2022-11-05T08:06:06.457Z,79.56
2022-11-05T08:08:33.973Z,78.23
2022-11-05T08:11:10.228Z,77.89
2022-11-05T08:13:38.412Z,77.31
2022-11-05T08:16:06.600Z,76.02
2022-11-05T08:18:34.281Z,74.27
2022-11-05T08:21:03.881Z,75.28
2022-11-05T08:23:32.448Z,75.84
2022-11-05T08:26:03.807Z,74.34
2022-11-05T08:28:31.939Z,73.19
2022-11-05T08:30:59.813Z,72.25
2022-11-05T08:33:28.137Z,70.82
2022-11-05T08:35:55.562Z,71.58
2022-11-05T08:38:23.225Z,71.31
2022-11-05T08:40:56.734Z,71.09
2022-11-05T08:43:24.907Z,71.65
2022-11-05T08:45:52.312Z,71.15
2022-11-05T08:48:19.765Z,71.14
2022-11-05T08:50:48.876Z,71.40
2022-11-05T08:53:16.455Z,71.07
2022-11-05T08:55:44.635Z,70.31
2022-11-05T08:58:15.636Z,69.90
2022-11-05T09:00:46.077Z,68.93
2022-11-05T09:03:14.596Z,69.35
2022-11-05T09:05:43.176Z,69.36
2022-11-05T09:08:16.098Z,68.60
2022-11-05T09:10:44.838Z,68.07
2022-11-05T09:13:18.411Z,66.06
2022-11-05T09:15:51.230Z,65.60
2022-11-05T09:18:20.065Z,64.88
2022-11-05T09:20:48.143Z,64.59
2022-11-05T09:23:16.367Z,64.79
2022-11-05T09:25:44.723Z,64.72
2022-11-05T09:28:20.419Z,64.06
2022-11-05T09:30:50.726Z,62.72
2022-11-05T09:33:20.669Z,61.54
2022-11-05T09:35:48.214Z,60.64
2022-11-05T09:38:16.105Z,60.00
2022-11-05T09:40:58.025Z,59.49
2022-11-05T09:43:32.143Z,58.50
2022-11-05T09:46:05.249Z,57.54
2022-11-05T09:48:34.302Z,57.07
2022-11-05T09:51:04.113Z,54.29
2022-11-05T09:53:31.799Z,53.28
2022-11-05T09:56:01.351Z,53.18
2022-11-05T09:58:39.416Z,53.99
2022-11-05T10:01:14.590Z,53.90
2022-11-05T10:03:54.675Z,54.51
2022-11-05T10:06:25.075Z,54.95
2022-11-05T10:09:19.256Z,53.21
2022-11-05T10:12:00.690Z,51.78
2022-11-05T10:14:36.886Z,51.94
2022-11-05T10:17:24.621Z,51.69
2022-11-05T10:20:04.525Z,49.31
2022-11-05T10:22:32.193Z,48.53
2022-11-05T10:25:00.592Z,49.70
2022-11-05T10:27:36.729Z,49.86
2022-11-05T10:30:04.984Z,49.43
2022-11-05T10:32:39.506Z,49.65
2022-11-05T10:35:12.448Z,48.59
2022-11-05T10:37:41.391Z,48.13
2022-11-05T10:40:55.523Z,47.00
2022-11-05T10:43:28.681Z,45.81
2022-11-05T10:46:18.382Z,44.87
2022-11-05T10:48:57.872Z,47.00
2022-11-05T10:51:26.189Z,46.96
2022-11-05T10:54:01.964Z,46.44
2022-11-05T10:56:39.160Z,45.32
2022-11-05T10:59:21.766Z,45.20
2022-11-05T11:02:04.638Z,44.47
2022-11-05T11:04:37.489Z,44.03
2022-11-05T11:07:05.979Z,44.78
2022-11-05T11:09:37.133Z,44.82
2022-11-05T11:12:15.817Z,45.72
2022-11-05T11:14:48.765Z,45.54
2022-11-05T11:17:31.079Z,46.00
2022-11-05T11:20:27.211Z,44.62
2022-11-05T11:23:15.348Z,44.77
2022-11-05T11:26:02.245Z,45.04
2022-11-05T11:28:37.590Z,45.92
2022-11-05T11:31:11.758Z,47.06
2022-11-05T11:33:42.181Z,46.61
2022-11-05T11:36:12.195Z,47.23
2022-11-05T11:38:40.854Z,48.10
2022-11-05T11:41:11.163Z,48.51
2022-11-05T11:43:41.681Z,48.09
2022-11-05T11:46:20.273Z,48.09
2022-11-05T11:48:49.629Z,48.24
2022-11-05T11:51:26.123Z,48.48
2022-11-05T11:53:58.568Z,48.07
2022-11-05T11:56:26.661Z,48.25
2022-11-05T11:58:56.790Z,48.20
2022-11-05T12:01:42.789Z,48.85
2022-11-05T12:04:50.854Z,48.95
2022-11-05T12:07:53.256Z,48.98
2022-11-05T12:10:21.023Z,49.50
2022-11-05T12:13:30.473Z,50.10
2022-11-05T12:16:07.594Z,50.12
2022-11-05T12:19:13.041Z,50.76
2022-11-05T12:22:19.032Z,50.76
2022-11-05T12:24:58.237Z,51.54
2022-11-05T12:27:55.868Z,52.15
2022-11-05T12:30:23.804Z,52.25
2022-11-05T12:33:24.834Z,53.17
2022-11-05T12:36:07.450Z,53.43
2022-11-05T12:38:53.932Z,53.47
2022-11-05T12:41:54.184Z,53.96
2022-11-05T12:44:27.902Z,53.91
2022-11-05T12:47:24.395Z,54.68
2022-11-05T12:50:04.601Z,54.79
2022-11-05T12:52:57.160Z,55.34
2022-11-05T12:55:27.796Z,55.64
2022-11-05T12:58:01.365Z,55.34
2022-11-05T13:00:30.510Z,55.50
2022-11-05T13:03:22.045Z,55.21
2022-11-05T13:06:04.481Z,55.18
2022-11-05T13:09:32.056Z,55.47
2022-11-05T13:12:05.967Z,55.57
2022-11-05T13:14:41.859Z,55.46
2022-11-05T13:17:22.570Z,56.24
2022-11-05T13:20:17.386Z,56.46
2022-11-05T13:22:50.913Z,56.68
2022-11-05T13:25:21.474Z,56.69
2022-11-05T13:28:16.463Z,56.97
2022-11-05T13:30:51.987Z,56.90
2022-11-05T13:33:47.954Z,57.02
2022-11-05T13:36:39.971Z,57.75
2022-11-05T13:39:22.854Z,57.82
2022-11-05T13:42:08.691Z,57.61
2022-11-05T13:44:57.376Z,57.94
2022-11-05T13:47:33.849Z,58.75
2022-11-05T13:50:45.382Z,59.27
2022-11-05T13:53:34.183Z,59.64
2022-11-05T13:56:28.429Z,60.29
2022-11-05T13:59:02.011Z,60.30
2022-11-05T14:01:48.144Z,60.40
2022-11-05T14:04:33.213Z,60.20
2022-11-05T14:09:24.265Z,59.62
2022-11-05T14:11:57.956Z,59.62
2022-11-05T14:14:29.428Z,60.20
2022-11-05T14:17:09.415Z,60.55
2022-11-05T14:19:49.874Z,60.24
2022-11-05T14:22:33.200Z,60.12
2022-11-05T14:25:02.026Z,60.40
2022-11-05T14:27:29.600Z,59.96
2022-11-05T14:29:57.431Z,59.99
2022-11-05T14:32:41.266Z,60.41
2022-11-05T14:35:17.954Z,60.24
2022-11-05T14:37:56.064Z,59.68
2022-11-05T14:40:36.599Z,58.98
2022-11-05T14:43:25.097Z,59.58
2022-11-05T14:46:01.667Z,58.94
2022-11-05T14:48:50.524Z,59.50
2022-11-05T14:51:38.688Z,59.11
2022-11-05T14:54:24.617Z,59.35
2022-11-05T14:56:57.413Z,59.38
2022-11-05T14:59:24.842Z,59.58
2022-11-05T15:01:57.540Z,59.54
2022-11-05T15:04:32.532Z,59.44
2022-11-05T15:07:03.277Z,59.34
2022-11-05T15:09:50.674Z,59.21
2022-11-05T15:12:56.216Z,59.75
2022-11-05T15:15:27.996Z,59.68
2022-11-05T15:18:05.874Z,59.97
2022-11-05T15:20:46.453Z,61.07
2022-11-05T15:23:17.773Z,61.56
2022-11-05T15:26:04.866Z,61.33
2022-11-05T15:28:44.629Z,61.26
2022-11-05T15:31:14.954Z,61.64
2022-11-05T15:33:45.545Z,61.68
2022-11-05T15:36:26.978Z,61.54
2022-11-05T15:39:27.862Z,61.64
2022-11-05T15:41:43.270Z,61.81
2022-11-05T15:44:25.233Z,62.35
2022-11-05T15:47:25.102Z,62.76
2022-11-05T15:49:57.321Z,63.86
2022-11-05T15:52:33.655Z,64.22
2022-11-05T15:55:07.846Z,64.11
2022-11-05T15:57:40.028Z,64.23
2022-11-05T16:00:17.399Z,64.13
2022-11-05T16:02:57.471Z,64.37
2022-11-05T16:05:28.107Z,64.02
2022-11-05T16:07:58.658Z,64.11
2022-11-05T16:10:32.159Z,64.50
2022-11-05T16:13:32.765Z,65.28
2022-11-05T16:16:27.474Z,64.68
2022-11-05T16:18:55.192Z,65.94
2022-11-05T16:21:25.327Z,65.39
2022-11-05T16:23:56.686Z,65.92
2022-11-05T16:29:37.527Z,67.90
2022-11-05T16:32:18.376Z,68.47
2022-11-05T16:34:52.475Z,68.58
2022-11-05T16:37:22.744Z,70.21
2022-11-05T16:39:50.778Z,70.39
2022-11-05T16:42:37.836Z,70.16
2022-11-05T16:45:07.335Z,69.82
2022-11-05T16:47:34.614Z,70.71
2022-11-05T16:50:02.238Z,70.76
2022-11-05T16:52:30.053Z,71.28
2022-11-05T16:54:57.382Z,71.30
2022-11-05T16:57:28.705Z,71.07
2022-11-05T16:59:59.194Z,71.00
2022-11-05T17:02:27.501Z,70.69
2022-11-05T17:04:55.149Z,69.83
2022-11-05T17:07:23.122Z,69.67
2022-11-05T17:09:50.486Z,69.97
2022-11-05T17:12:17.895Z,70.38
2022-11-05T17:14:45.629Z,70.79
2022-11-05T17:17:13.016Z,70.50
2022-11-05T17:19:43.223Z,70.59
2022-11-05T17:22:10.994Z,70.30
2022-11-05T17:24:39.097Z,70.64
2022-11-05T17:27:06.614Z,70.89
2022-11-05T17:29:34.436Z,70.42
2022-11-05T17:32:02.194Z,70.30
2022-11-05T17:34:29.789Z,70.31
2022-11-05T17:36:57.653Z,69.89
2022-11-05T17:39:31.246Z,70.27
2022-11-05T17:41:59.443Z,69.48
2022-11-05T17:44:26.845Z,70.45
2022-11-05T17:46:54.278Z,70.02
2022-11-05T17:49:21.936Z,69.95
2022-11-05T17:51:49.407Z,70.25
2022-11-05T17:54:16.820Z,70.08
2022-11-05T17:56:45.002Z,70.58
2022-11-05T17:59:12.431Z,70.04
2022-11-05T18:01:45.007Z,70.18
2022-11-05T18:04:12.793Z,70.45
2022-11-05T18:06:41.623Z,70.20
2022-11-05T18:09:10.576Z,70.07
2022-11-05T18:11:39.459Z,70.47
2022-11-05T18:14:07.083Z,70.03
2022-11-05T18:16:35.054Z,69.51
2022-11-05T18:19:03.755Z,69.75
2022-11-05T18:21:31.120Z,70.16
2022-11-05T18:23:58.649Z,70.86
2022-11-05T18:26:26.626Z,70.66
2022-11-05T18:28:53.994Z,71.06
2022-11-05T18:31:21.991Z,71.53
2022-11-05T18:33:50.898Z,72.01
2022-11-05T18:36:24.357Z,71.93
2022-11-05T18:38:52.457Z,71.87
2022-11-05T18:41:20.768Z,72.02
2022-11-05T18:43:48.062Z,71.82
2022-11-05T18:46:43.025Z,72.01
2022-11-05T18:49:04.755Z,72.27
2022-11-05T18:51:32.747Z,73.25
2022-11-05T18:54:00.760Z,73.77
2022-11-05T18:56:28.574Z,73.52
2022-11-05T18:59:21.846Z,72.90
2022-11-05T19:01:45.474Z,73.29
2022-11-05T19:04:13.610Z,73.74
2022-11-05T19:06:41.488Z,74.18
2022-11-05T19:09:12.114Z,74.15
2022-11-05T19:11:40.882Z,74.19
2022-11-05T19:14:08.960Z,74.37
2022-11-05T19:16:36.737Z,74.80
2022-11-05T19:19:06.442Z,74.61
2022-11-05T19:21:33.821Z,74.66
2022-11-05T19:24:02.991Z,74.35
2022-11-05T19:26:31.008Z,74.48
2022-11-05T19:29:01.278Z,74.81
2022-11-05T19:31:29.667Z,74.14
2022-11-05T19:33:58.091Z,74.70
2022-11-05T19:36:25.711Z,75.39
2022-11-05T19:39:02.258Z,74.15
2022-11-05T19:41:29.994Z,75.11
2022-11-05T19:44:01.996Z,75.70
2022-11-05T19:46:31.143Z,76.42
2022-11-05T19:49:00.706Z,76.97
2022-11-05T19:51:30.598Z,76.12
2022-11-05T19:54:00.030Z,76.09
2022-11-05T19:56:28.502Z,75.53
2022-11-05T19:58:55.859Z,76.15
2022-11-05T20:01:25.359Z,76.29
2022-11-05T20:03:55.439Z,76.97
2022-11-05T20:06:28.743Z,77.57
2022-11-05T20:11:45.515Z,77.64
2022-11-05T20:14:13.413Z,77.89
2022-11-05T20:16:42.379Z,78.56
2022-11-05T20:19:13.148Z,78.38
2022-11-05T20:21:41.659Z,78.39
2022-11-05T20:24:11.924Z,78.24
2022-11-05T20:26:39.638Z,77.46
2022-11-05T20:29:07.436Z,76.88
2022-11-05T20:31:34.763Z,76.46
2022-11-05T20:34:02.220Z,76.41
2022-11-05T20:36:29.955Z,76.85
2022-11-05T20:38:58.727Z,77.39
2022-11-05T20:41:26.551Z,77.44
2022-11-05T20:43:54.975Z,77.87
2022-11-05T20:46:23.325Z,77.93
2022-11-05T20:48:50.754Z,77.54
2022-11-05T20:51:21.184Z,76.87
2022-11-05T20:53:49.191Z,77.29
2022-11-05T20:56:22.835Z,78.19
2022-11-05T20:58:51.393Z,78.50
2022-11-05T21:01:19.798Z,77.79
2022-11-05T21:03:48.151Z,78.36
2022-11-05T21:06:16.323Z,78.73
2022-11-05T21:08:46.652Z,78.34
2022-11-05T21:11:14.442Z,77.95
2022-11-05T21:13:42.473Z,77.42
2022-11-05T21:16:15.444Z,77.96
2022-11-05T21:18:46.245Z,77.85
2022-11-05T21:21:19.804Z,78.60
2022-11-05T21:23:48.226Z,78.04
2022-11-05T21:26:17.960Z,78.19
2022-11-05T21:28:45.452Z,77.95
2022-11-05T21:31:13.250Z,78.03
2022-11-05T21:33:40.861Z,78.51
2022-11-05T21:36:10.813Z,78.46
2022-11-05T21:38:39.592Z,78.13
2022-11-05T21:41:07.967Z,78.15
2022-11-05T21:43:35.371Z,77.44
2022-11-05T21:46:04.907Z,77.39
2022-11-05T21:48:32.529Z,77.23
2022-11-05T21:51:18.466Z,75.59
2022-11-05T21:54:05.157Z,75.27
2022-11-05T21:56:51.777Z,75.75
2022-11-05T21:59:41.561Z,75.87
2022-11-05T22:02:11.489Z,75.21
2022-11-05T22:04:45.634Z,75.70
2022-11-05T22:07:16.632Z,75.06
2022-11-05T22:09:44.669Z,74.67
2022-11-05T22:12:12.089Z,74.28
2022-11-05T22:14:39.736Z,75.35
2022-11-05T22:17:08.425Z,75.33
2022-11-05T22:19:36.594Z,75.85
2022-11-05T22:22:05.388Z,76.39
2022-11-05T22:24:34.635Z,75.65
2022-11-05T22:27:05.430Z,74.93
2022-11-05T22:29:33.633Z,74.71
2022-11-05T22:32:01.013Z,74.83
2022-11-05T22:34:28.515Z,75.00
2022-11-05T22:36:56.283Z,74.75
2022-11-05T22:39:24.154Z,75.18
2022-11-05T22:41:57.644Z,76.75
2022-11-05T22:44:26.929Z,78.13
2022-11-05T22:46:54.718Z,77.85
2022-11-05T22:49:22.268Z,77.81
2022-11-05T22:51:49.855Z,77.02
2022-11-05T22:54:17.717Z,75.91
2022-11-05T22:56:45.243Z,75.37
2022-11-05T22:59:15.863Z,75.29
2022-11-05T23:01:44.922Z,74.86
2022-11-05T23:04:13.662Z,74.74
2022-11-05T23:06:59.453Z,74.44
2022-11-05T23:09:48.513Z,74.59
2022-11-05T23:12:27.238Z,73.97
2022-11-05T23:14:55.747Z,73.11
2022-11-05T23:17:42.752Z,73.22
2022-11-05T23:20:40.446Z,73.07
2022-11-05T23:23:30.507Z,72.45
2022-11-05T23:26:00.252Z,72.74
2022-11-05T23:28:27.377Z,73.09
2022-11-05T23:31:13.391Z,72.66
2022-11-05T23:33:40.983Z,73.28
2022-11-05T23:36:30.979Z,73.21
2022-11-05T23:38:58.571Z,73.42
2022-11-05T23:41:44.261Z,73.48
2022-11-05T23:44:30.474Z,73.39
2022-11-05T23:47:16.222Z,73.33
2022-11-05T23:49:43.853Z,73.32
2022-11-05T23:52:11.094Z,73.70
2022-11-05T23:54:38.289Z,73.97
2022-11-05T23:57:05.901Z,74.00
2022-11-05T23:59:33.099Z,74.05
